createdAt,value
2023-02-22T00:01:51.154Z,8.27
2023-02-22T00:04:17.812Z,5.57
2023-02-22T00:06:44.260Z,2.88
2023-02-22T00:09:10.674Z,4.50
2023-02-22T00:11:37.124Z,4.18
2023-02-22T00:14:03.520Z,3.53
2023-02-22T00:16:29.930Z,7.10
2023-02-22T00:18:56.359Z,8.13
2023-02-22T00:21:22.937Z,4.82
2023-02-22T00:23:49.410Z,6.03
2023-02-22T00:26:17.356Z,3.83
2023-02-22T00:28:45.568Z,8.60
2023-02-22T00:31:11.932Z,3.13
2023-02-22T00:33:38.703Z,3.30
2023-02-22T00:36:05.577Z,5.83
2023-02-22T00:38:31.961Z,2.38
2023-02-22T00:40:58.403Z,3.53
2023-02-22T00:43:24.872Z,3.28
2023-02-22T00:45:51.298Z,4.82
2023-02-22T00:48:17.713Z,2.70
2023-02-22T00:50:44.688Z,6.10
2023-02-22T00:53:11.777Z,6.50
2023-02-22T00:55:38.418Z,9.27
2023-02-22T00:58:05.356Z,6.75
2023-02-22T01:00:41.790Z,4.45
2023-02-22T01:03:09.555Z,8.52
2023-02-22T01:05:36.810Z,6.97
2023-02-22T01:08:03.537Z,7.95
2023-02-22T01:10:31.182Z,11.43
2023-02-22T01:12:58.083Z,6.25
2023-02-22T01:15:25.711Z,10.50
2023-02-22T01:17:52.853Z,6.15
2023-02-22T01:20:20.306Z,5.70
2023-02-22T01:22:47.695Z,3.72
2023-02-22T01:25:19.062Z,4.85
2023-02-22T01:27:45.533Z,2.30
2023-02-22T01:30:12.808Z,3.80
2023-02-22T01:32:40.403Z,4.32
2023-02-22T01:35:08.532Z,8.73
2023-02-22T01:37:35.655Z,9.20
2023-02-22T01:40:02.874Z,5.35
2023-02-22T01:42:29.245Z,3.28
2023-02-22T01:45:14.382Z,5.47
2023-02-22T01:47:40.912Z,1.83
2023-02-22T01:50:07.444Z,6.80
2023-02-22T01:52:33.972Z,3.15
2023-02-22T01:55:00.365Z,3.27
2023-02-22T01:57:29.192Z,5.22
2023-02-22T02:00:21.820Z,4.20
2023-02-22T02:02:50.591Z,3.85
2023-02-22T02:05:17.014Z,5.27
2023-02-22T02:07:43.480Z,6.15
2023-02-22T02:10:11.770Z,9.95
2023-02-22T02:12:38.163Z,6.65
2023-02-22T02:15:22.760Z,9.13
2023-02-22T02:17:50.148Z,9.00
2023-02-22T02:20:27.311Z,7.75
2023-02-22T02:22:59.808Z,8.38
2023-02-22T02:25:44.953Z,2.90
2023-02-22T02:28:30.000Z,4.03
2023-02-22T02:31:15.173Z,2.35
2023-02-22T02:33:43.896Z,4.30
2023-02-22T02:36:16.098Z,3.00
2023-02-22T02:38:50.698Z,6.53
2023-02-22T02:41:26.997Z,4.85
2023-02-22T02:43:55.811Z,7.85
2023-02-22T02:46:26.028Z,6.47
2023-02-22T02:48:54.730Z,3.70
2023-02-22T02:51:22.148Z,4.97
2023-02-22T02:53:48.822Z,11.52
2023-02-22T02:56:15.251Z,7.17
2023-02-22T02:58:45.819Z,8.98
2023-02-22T03:01:13.497Z,8.45
2023-02-22T03:03:40.047Z,10.15
2023-02-22T03:06:25.139Z,10.50
2023-02-22T03:09:09.820Z,7.85
2023-02-22T03:11:56.851Z,7.55
2023-02-22T03:14:27.191Z,6.57
2023-02-22T03:17:04.517Z,4.53
2023-02-22T03:19:36.715Z,11.52
2023-02-22T03:22:29.119Z,5.82
2023-02-22T03:25:03.997Z,3.77
2023-02-22T03:27:33.567Z,6.82
2023-02-22T03:30:02.334Z,8.75
2023-02-22T03:32:33.463Z,6.15
2023-02-22T03:35:03.309Z,7.33
2023-02-22T03:37:32.195Z,3.83
2023-02-22T03:39:59.696Z,5.03
2023-02-22T03:42:28.902Z,7.82
2023-02-22T03:44:57.223Z,4.07
2023-02-22T03:47:32.488Z,4.88
2023-02-22T03:50:05.784Z,3.88
2023-02-22T03:52:36.021Z,3.63
2023-02-22T03:55:02.784Z,3.15
2023-02-22T03:57:32.551Z,3.97
2023-02-22T03:59:59.245Z,3.50
2023-02-22T04:02:25.696Z,5.40
2023-02-22T04:04:52.184Z,1.98
2023-02-22T04:07:18.567Z,4.03
2023-02-22T04:09:44.949Z,4.82
2023-02-22T04:12:11.391Z,5.07
2023-02-22T04:14:37.861Z,3.25
2023-02-22T04:17:04.303Z,6.13
2023-02-22T04:19:30.840Z,3.03
2023-02-22T04:21:57.302Z,3.80
2023-02-22T04:24:23.750Z,2.20
2023-02-22T04:26:50.221Z,2.92
2023-02-22T04:29:16.719Z,1.87
2023-02-22T04:31:43.137Z,4.93
2023-02-22T04:34:09.595Z,5.50
2023-02-22T04:36:36.081Z,7.20
2023-02-22T04:39:02.561Z,6.63
2023-02-22T04:41:28.999Z,2.47
2023-02-22T04:43:55.470Z,9.10
2023-02-22T04:46:22.025Z,10.20
2023-02-22T04:48:48.562Z,4.63
2023-02-22T04:51:16.116Z,9.35
2023-02-22T04:53:42.625Z,5.65
2023-02-22T04:56:09.016Z,7.68
2023-02-22T04:58:35.504Z,3.42
2023-02-22T05:01:01.955Z,3.55
2023-02-22T05:03:28.296Z,5.45
2023-02-22T05:05:54.735Z,2.10
2023-02-22T05:08:21.109Z,4.80
2023-02-22T05:10:47.490Z,5.63
2023-02-22T05:13:13.949Z,8.73
2023-02-22T05:15:40.342Z,5.73
2023-02-22T05:18:06.764Z,7.38
2023-02-22T05:20:34.453Z,13.20
2023-02-22T05:23:01.890Z,5.78
2023-02-22T05:25:28.376Z,7.82
2023-02-22T05:27:59.169Z,8.03
2023-02-22T05:30:28.039Z,9.73
2023-02-22T05:32:54.503Z,5.18
2023-02-22T05:35:21.703Z,4.88
2023-02-22T05:37:48.097Z,6.47
2023-02-22T05:40:14.457Z,7.20
2023-02-22T05:42:41.624Z,7.75
2023-02-22T05:45:08.718Z,10.23
2023-02-22T05:47:35.095Z,8.98
2023-02-22T05:50:01.514Z,8.07
2023-02-22T05:52:28.297Z,9.57
2023-02-22T05:54:54.644Z,8.93
2023-02-22T05:57:21.157Z,7.15
2023-02-22T05:59:47.601Z,7.55
2023-02-22T06:02:14.081Z,8.25
2023-02-22T06:04:40.520Z,10.33
2023-02-22T06:07:06.897Z,7.75
2023-02-22T06:09:33.316Z,10.20
2023-02-22T06:11:59.779Z,9.23
2023-02-22T06:14:26.300Z,8.40
2023-02-22T06:16:56.128Z,9.40
2023-02-22T06:19:22.884Z,9.52
2023-02-22T06:21:53.076Z,8.93
2023-02-22T06:24:19.838Z,8.57
2023-02-22T06:26:46.407Z,6.95
2023-02-22T06:29:12.783Z,10.27
2023-02-22T06:31:39.262Z,9.93
2023-02-22T06:34:05.735Z,11.95
2023-02-22T06:36:32.179Z,10.88
2023-02-22T06:38:58.631Z,9.90
2023-02-22T06:41:25.057Z,12.33
2023-02-22T06:43:51.433Z,9.85
2023-02-22T06:46:17.835Z,11.40
2023-02-22T06:48:44.242Z,10.30
2023-02-22T06:51:11.018Z,10.18
2023-02-22T06:53:37.534Z,7.70
2023-02-22T06:56:04.165Z,12.25
2023-02-22T06:58:30.524Z,7.00
2023-02-22T07:00:57.006Z,7.30
2023-02-22T07:03:23.610Z,9.95
2023-02-22T07:05:50.093Z,10.60
2023-02-22T07:08:16.570Z,9.55
2023-02-22T07:10:43.046Z,9.55
2023-02-22T07:13:09.455Z,9.40
2023-02-22T07:15:35.961Z,14.02
2023-02-22T07:18:02.439Z,12.57
2023-02-22T07:20:29.856Z,10.20
2023-02-22T07:22:56.244Z,14.85
2023-02-22T07:25:22.992Z,21.05
2023-02-22T07:27:49.345Z,11.85
2023-02-22T07:30:18.155Z,10.03
2023-02-22T07:32:45.217Z,13.57
2023-02-22T07:35:15.772Z,13.75
2023-02-22T07:37:42.246Z,9.75
2023-02-22T07:40:09.131Z,6.95
2023-02-22T07:42:49.883Z,12.33
2023-02-22T07:45:16.300Z,12.23
2023-02-22T07:47:42.721Z,12.50
2023-02-22T07:50:09.272Z,10.10
2023-02-22T07:52:35.721Z,11.45
2023-02-22T07:55:02.075Z,10.97
2023-02-22T07:57:28.580Z,12.07
2023-02-22T07:59:55.208Z,10.90
2023-02-22T08:02:21.822Z,10.95
2023-02-22T08:04:48.346Z,10.45
2023-02-22T08:07:14.799Z,8.83
2023-02-22T08:09:41.219Z,10.27
2023-02-22T08:12:07.796Z,10.85
2023-02-22T08:14:34.407Z,11.88
2023-02-22T08:17:00.853Z,8.25
2023-02-22T08:19:27.247Z,9.97
2023-02-22T08:21:53.646Z,7.10
2023-02-22T08:24:20.096Z,8.20
2023-02-22T08:26:47.160Z,14.20
2023-02-22T08:29:13.712Z,12.18
2023-02-22T08:31:40.651Z,10.23
2023-02-22T08:34:07.139Z,8.55
2023-02-22T08:36:33.555Z,11.40
2023-02-22T08:39:00.519Z,9.75
2023-02-22T08:41:27.148Z,9.95
2023-02-22T08:43:53.621Z,9.90
2023-02-22T08:46:20.096Z,9.70
2023-02-22T08:48:51.034Z,9.18
2023-02-22T08:51:18.304Z,8.95
2023-02-22T08:53:44.978Z,9.18
2023-02-22T08:56:11.592Z,12.13
2023-02-22T08:58:38.002Z,7.28
2023-02-22T09:01:04.462Z,9.98
2023-02-22T09:03:30.864Z,8.77
2023-02-22T09:05:57.511Z,9.27
2023-02-22T09:08:24.018Z,10.63
2023-02-22T09:10:50.803Z,9.65
2023-02-22T09:13:17.455Z,10.70
2023-02-22T09:15:43.965Z,9.93
2023-02-22T09:18:12.466Z,9.32
2023-02-22T09:20:39.205Z,9.10
2023-02-22T09:23:05.947Z,9.98
2023-02-22T09:25:32.841Z,11.80
2023-02-22T09:27:59.791Z,8.65
2023-02-22T09:30:34.936Z,10.00
2023-02-22T09:33:12.576Z,7.27
2023-02-22T09:35:40.023Z,7.63
2023-02-22T09:38:06.489Z,9.15
2023-02-22T09:40:33.663Z,10.88
2023-02-22T09:43:20.272Z,10.50
2023-02-22T09:45:55.874Z,9.70
2023-02-22T09:48:22.796Z,9.20
2023-02-22T09:50:52.405Z,7.65
2023-02-22T09:53:26.522Z,7.65
2023-02-22T09:55:53.269Z,9.52
2023-02-22T09:58:28.631Z,7.53
2023-02-22T10:01:00.544Z,8.40
2023-02-22T10:03:33.792Z,7.95
2023-02-22T10:06:06.095Z,7.07
2023-02-22T10:08:33.506Z,6.38
2023-02-22T10:11:10.571Z,7.40
2023-02-22T10:13:48.541Z,6.82
2023-02-22T10:16:25.623Z,8.30
2023-02-22T10:19:14.797Z,10.02
2023-02-22T10:21:46.543Z,7.63
2023-02-22T10:24:26.260Z,7.23
2023-02-22T10:26:53.774Z,4.68
2023-02-22T10:29:27.482Z,7.80
2023-02-22T10:31:57.640Z,6.13
2023-02-22T10:34:25.988Z,8.25
2023-02-22T10:36:57.367Z,7.23
2023-02-22T10:39:34.197Z,5.28
2023-02-22T10:42:05.313Z,6.97
2023-02-22T10:44:35.261Z,5.57
2023-02-22T10:47:02.671Z,5.60
2023-02-22T10:49:33.969Z,10.20
2023-02-22T10:52:01.754Z,7.18
2023-02-22T10:54:33.530Z,6.38
2023-02-22T10:57:00.292Z,5.95
2023-02-22T10:59:38.213Z,6.10
2023-02-22T11:02:17.712Z,5.63
2023-02-22T11:05:04.214Z,5.43
2023-02-22T11:07:32.118Z,4.95
2023-02-22T11:10:03.152Z,6.53
2023-02-22T11:12:31.911Z,5.57
2023-02-22T11:15:18.208Z,3.63
2023-02-22T11:17:46.222Z,6.20
2023-02-22T11:20:19.656Z,4.88
2023-02-22T11:22:46.219Z,7.70
2023-02-22T11:25:19.011Z,5.75
2023-02-22T11:27:45.738Z,6.17
2023-02-22T11:30:18.395Z,4.10
2023-02-22T11:32:47.439Z,4.22
2023-02-22T11:35:19.891Z,6.65
2023-02-22T11:37:47.140Z,9.45
2023-02-22T11:40:13.637Z,6.90
2023-02-22T11:42:40.012Z,8.13
2023-02-22T11:45:11.061Z,8.40
2023-02-22T11:47:58.491Z,5.53
2023-02-22T11:50:33.531Z,6.28
2023-02-22T11:53:17.653Z,7.00
2023-02-22T11:55:52.029Z,3.72
2023-02-22T20:24:05.992Z,3.10
2023-02-22T20:26:33.222Z,4.25
2023-02-22T20:29:00.261Z,1.77
2023-02-22T20:31:27.898Z,1.87
2023-02-22T20:33:55.338Z,2.42
2023-02-22T20:36:22.018Z,4.47
2023-02-22T20:38:48.684Z,4.15
2023-02-22T20:41:19.751Z,1.87
2023-02-22T20:43:49.408Z,2.53
2023-02-22T20:46:16.029Z,4.13
2023-02-22T20:48:42.382Z,2.05
2023-02-22T20:51:10.137Z,1.83
2023-02-22T20:53:37.129Z,2.45
2023-02-22T20:56:03.664Z,2.72
2023-02-22T20:58:30.096Z,5.00
2023-02-22T21:00:56.556Z,3.25
2023-02-22T21:03:23.011Z,4.63
2023-02-22T21:05:49.620Z,3.50
2023-02-22T21:08:15.960Z,4.05
2023-02-22T21:10:43.216Z,6.05
2023-02-22T21:13:11.489Z,4.87
2023-02-22T21:15:38.445Z,3.38
2023-02-22T21:18:05.021Z,6.03
2023-02-22T21:20:31.613Z,2.28
2023-02-22T21:22:58.366Z,3.70
2023-02-22T21:25:24.773Z,2.45
2023-02-22T21:27:52.272Z,2.03
2023-02-22T21:30:18.649Z,3.38
2023-02-22T21:32:45.064Z,1.80
2023-02-22T21:35:11.450Z,2.87
2023-02-22T21:37:37.845Z,2.83
2023-02-22T21:40:04.449Z,6.82
2023-02-22T21:42:30.908Z,5.80
2023-02-22T21:44:57.310Z,3.00
2023-02-22T21:47:23.713Z,2.38
2023-02-22T21:49:50.942Z,5.15
2023-02-22T21:52:17.268Z,4.47
2023-02-22T21:54:43.715Z,2.90
2023-02-22T21:57:10.892Z,4.67
2023-02-22T21:59:37.276Z,7.80
2023-02-22T22:02:03.595Z,2.63
2023-02-22T22:04:31.938Z,0.60
2023-02-22T22:06:59.280Z,4.30
2023-02-22T22:09:26.684Z,6.07
2023-02-22T22:11:54.814Z,3.72
2023-02-22T22:14:23.179Z,3.92
2023-02-22T22:16:52.305Z,1.58
2023-02-22T22:19:19.025Z,5.37
2023-02-22T22:21:45.573Z,2.35
2023-02-22T22:24:12.263Z,0.80
2023-02-22T22:26:39.227Z,3.25
2023-02-22T22:29:05.738Z,2.45
2023-02-22T22:31:32.560Z,2.00
2023-02-22T22:33:59.085Z,4.13
2023-02-22T22:36:26.014Z,1.77
2023-02-22T22:38:52.398Z,2.60
2023-02-22T22:41:20.476Z,2.63
2023-02-22T22:43:47.468Z,2.47
2023-02-22T22:46:15.183Z,2.38
2023-02-22T22:48:41.684Z,2.17
2023-02-22T22:51:09.443Z,2.78
2023-02-22T22:53:39.945Z,3.42
2023-02-22T22:56:07.748Z,3.30
2023-02-22T22:58:34.906Z,3.40
2023-02-22T23:01:01.986Z,2.85
2023-02-22T23:03:28.876Z,4.70
2023-02-22T23:05:55.465Z,5.73
2023-02-22T23:08:21.940Z,2.63
2023-02-22T23:10:48.372Z,5.70
2023-02-22T23:13:14.751Z,8.75
2023-02-22T23:15:44.538Z,4.35
2023-02-22T23:18:10.962Z,4.83
2023-02-22T23:20:37.326Z,5.03
2023-02-22T23:23:04.085Z,2.22
2023-02-22T23:25:31.069Z,4.20
2023-02-22T23:27:57.517Z,2.80
2023-02-22T23:30:23.885Z,1.83
2023-02-22T23:32:51.142Z,2.97
2023-02-22T23:35:17.688Z,2.88
2023-02-22T23:37:44.851Z,2.45
2023-02-22T23:40:11.885Z,2.43
2023-02-22T23:42:38.504Z,4.07
2023-02-22T23:45:05.117Z,4.82
2023-02-22T23:47:31.585Z,2.42
2023-02-22T23:49:57.937Z,2.45
2023-02-22T23:52:24.595Z,3.25
2023-02-22T23:54:51.163Z,2.85
2023-02-22T23:57:17.600Z,3.10
2023-02-22T23:59:44.004Z,2.53
